CYBX

Details ICAO CYBX (YBX)
Name LOURDES DE BLANC SABLON
Region Canada
Timezone America/Blanc-Sablon (UTC-4.0)
Plans Departing 6
Arriving 4
Stats Elevation 121 ft / 37 m (AMSL)
Location 51.442107° -57.186311°
Runways 1
Magnetic Variation 20.026° W
Sunrise 2017-12-12 11:46:34 UTC / 2017-12-12 07:46:34 Local
Sunset 2017-12-12 19:41:23 UTC / 2017-12-12 15:41:23 Local
Advertisement - Login to hide

Runways

ID Width Length Bearing (true) Bearing (mag) Surface Threshold Offset Overrun Length
05 150 ft / 46 m 4,492 ft / 1,369 m 27.43° 47.46° Asphalt 0 ft / 0 m 0 ft / 0 m
23 150 ft / 46 m 4,492 ft / 1,369 m 207.44° 227.47° Asphalt 0 ft / 0 m 0 ft / 0 m

Approach Navaids

Runway Type Ident Frequency Range Bearing (true) Bearing (mag) Slope Elevation
05 Localiser IBX 109.10 MHz 18 nm / 33 km 28.11° 48.13° - 121 ft / 37 m (AMSL)

Map

Weather


0- 5 10 15 20 25 30 35+ Temperature / ° C

Clouds and Precipitation
Forecast for 2017-12-13 00:00 UTC. Updated an hour ago

Ground ~20,000 ft ~40,000 ft Winds

METAR

CYBX 122200Z 03006KT 15SM SCT210 M15/M20 A3025 RMK CI3 SLP248

TAF

TAF CYBX 121941Z 1220/1308 VRB03KT P6SM FEW020 FM130200 05007KT P6SM SCT020 OVC090 FM130600 05010G20KT P6SM BKN020 OVC120 RMK NXT FCST BY 130200Z
Warning: Do not use this data for real-world aviation or navigation. No guarantee of current accuracy is given.